createdAt,value
2023-03-06T00:02:17.702Z,-0.22
2023-03-06T00:04:46.014Z,-0.19
2023-03-06T00:07:14.440Z,-0.19
2023-03-06T00:09:42.765Z,-0.27
2023-03-06T00:12:11.549Z,-0.31
2023-03-06T00:14:39.866Z,-0.21
2023-03-06T00:17:09.535Z,-0.26
2023-03-06T00:19:37.847Z,-0.32
2023-03-06T00:22:06.154Z,-0.37
2023-03-06T00:24:34.468Z,-0.49
2023-03-06T00:27:02.832Z,-1.15
2023-03-06T00:29:31.144Z,-0.46
2023-03-06T00:31:59.651Z,-0.53
2023-03-06T00:34:29.663Z,-0.78
2023-03-06T00:36:58.075Z,-0.56
2023-03-06T00:39:26.354Z,-0.73
2023-03-06T00:41:55.732Z,-0.64
2023-03-06T00:44:24.655Z,-0.60
2023-03-06T00:46:53.251Z,-1.04
2023-03-06T00:49:21.918Z,-0.72
2023-03-06T00:51:51.683Z,-0.75
2023-03-06T00:54:19.995Z,-0.82
2023-03-06T00:56:48.302Z,-0.65
2023-03-06T00:59:16.866Z,-0.65
2023-03-06T01:01:45.354Z,-0.71
2023-03-06T01:04:13.734Z,-0.77
2023-03-06T01:06:42.012Z,-0.81
2023-03-06T01:09:11.923Z,-0.92
2023-03-06T01:11:40.257Z,-0.81
2023-03-06T01:14:08.784Z,-0.82
2023-03-06T01:16:37.199Z,-1.07
2023-03-06T01:19:06.078Z,-0.77
2023-03-06T01:21:34.464Z,-0.79
2023-03-06T01:24:02.804Z,-0.78
2023-03-06T01:26:33.665Z,-1.42
2023-03-06T01:29:02.306Z,-0.70
2023-03-06T01:31:30.699Z,-0.63
2023-03-06T01:33:59.013Z,-0.64
2023-03-06T01:36:27.606Z,-0.50
2023-03-06T01:38:55.967Z,-0.49
2023-03-06T01:41:24.446Z,-0.38
2023-03-06T01:43:54.359Z,-0.37
2023-03-06T01:46:42.391Z,-0.38
2023-03-06T01:49:17.550Z,-0.39
2023-03-06T01:51:51.535Z,-0.56
2023-03-06T01:54:24.462Z,-0.41
2023-03-06T01:56:56.594Z,-0.41
2023-03-06T01:59:27.888Z,-0.40
2023-03-06T02:01:57.935Z,-0.40
2023-03-06T02:04:26.985Z,-0.56
2023-03-06T02:06:56.876Z,-0.41
2023-03-06T02:09:29.920Z,-0.42
2023-03-06T02:11:58.298Z,-0.92
2023-03-06T02:14:28.389Z,-0.48
2023-03-06T02:16:56.893Z,-0.54
2023-03-06T02:19:38.155Z,-1.12
2023-03-06T02:22:06.765Z,-0.85
2023-03-06T02:24:42.990Z,-0.62
2023-03-06T02:27:15.600Z,-0.90
2023-03-06T02:29:47.039Z,-0.68
2023-03-06T02:32:15.351Z,-0.83
2023-03-06T02:34:58.354Z,-0.72
2023-03-06T02:37:28.887Z,-1.00
2023-03-06T02:40:04.669Z,-0.81
2023-03-06T02:42:34.435Z,-0.71
2023-03-06T02:45:05.895Z,-0.73
2023-03-06T02:47:34.278Z,-0.68
2023-03-06T02:50:02.529Z,-0.57
2023-03-06T02:52:30.863Z,-0.72
2023-03-06T02:54:59.168Z,-0.64
2023-03-06T02:57:27.525Z,-0.64
2023-03-06T02:59:57.255Z,-0.71
2023-03-06T03:02:25.531Z,-0.69
2023-03-06T03:04:53.940Z,-0.65
2023-03-06T03:07:22.400Z,-0.60
2023-03-06T03:09:50.733Z,-0.53
2023-03-06T03:12:19.071Z,-0.42
2023-03-06T03:14:47.521Z,-0.65
2023-03-06T03:17:17.713Z,-0.39
2023-03-06T03:19:46.024Z,-0.71
2023-03-06T03:22:14.333Z,-0.69
2023-03-06T03:24:43.405Z,-0.52
2023-03-06T03:27:12.735Z,-0.65
2023-03-06T03:29:41.345Z,-0.40
2023-03-06T03:32:10.633Z,-0.70
2023-03-06T03:34:40.400Z,-0.39
2023-03-06T03:37:08.873Z,-0.30
2023-03-06T03:39:37.728Z,-0.51
2023-03-06T03:42:06.309Z,-0.32
2023-03-06T03:44:34.532Z,-0.40
2023-03-06T03:47:02.852Z,-0.44
2023-03-06T03:49:31.506Z,-0.34
2023-03-06T03:52:01.333Z,-0.36
2023-03-06T03:54:30.162Z,-0.52
2023-03-06T03:56:58.542Z,-0.55
2023-03-06T03:59:29.162Z,-0.23
2023-03-06T04:01:57.522Z,-0.27
2023-03-06T04:04:25.975Z,-0.17
2023-03-06T04:06:54.285Z,-0.21
2023-03-06T04:09:24.501Z,-0.19
2023-03-06T04:11:53.102Z,-0.26
2023-03-06T04:14:21.386Z,-0.28
2023-03-06T04:16:49.714Z,-0.27
2023-03-06T04:19:17.964Z,-0.18
2023-03-06T04:21:46.285Z,-0.38
2023-03-06T04:24:14.934Z,-0.19
2023-03-06T04:26:44.692Z,-0.20
2023-03-06T04:29:13.056Z,-0.16
2023-03-06T04:31:41.424Z,-0.15
2023-03-06T04:34:10.097Z,-0.10
2023-03-06T04:36:39.025Z,-0.40
2023-03-06T04:39:07.528Z,-0.10
2023-03-06T04:41:35.904Z,0.01
2023-03-06T04:44:05.871Z,0.04
2023-03-06T04:46:34.186Z,-0.02
2023-03-06T04:49:02.644Z,-0.04
2023-03-06T04:51:30.964Z,-0.07
2023-03-06T04:53:59.316Z,-0.09
2023-03-06T04:56:28.071Z,-0.07
2023-03-06T04:58:56.809Z,-0.03
2023-03-06T05:01:26.909Z,0.00
2023-03-06T05:03:55.583Z,-0.04
2023-03-06T05:06:23.915Z,-0.05
2023-03-06T05:08:52.307Z,0.02
2023-03-06T05:11:20.671Z,-0.00
2023-03-06T05:13:49.519Z,0.02
2023-03-06T05:16:17.948Z,-0.06
2023-03-06T05:18:50.416Z,0.04
2023-03-06T05:21:19.237Z,0.06
2023-03-06T05:23:47.780Z,0.15
2023-03-06T05:26:17.129Z,0.10
2023-03-06T05:28:45.926Z,0.01
2023-03-06T05:31:14.286Z,-0.09
2023-03-06T05:33:42.560Z,0.20
2023-03-06T05:36:12.483Z,-0.19
2023-03-06T05:38:40.754Z,0.09
2023-03-06T05:41:13.059Z,0.17
2023-03-06T05:43:41.742Z,0.08
2023-03-06T05:46:10.713Z,0.07
2023-03-06T05:48:39.365Z,-0.16
2023-03-06T05:51:07.938Z,-0.03
2023-03-06T05:53:37.611Z,-0.04
2023-03-06T05:56:08.982Z,-0.06
2023-03-06T05:58:37.697Z,-0.05
2023-03-06T06:01:11.366Z,-0.00
2023-03-06T06:03:39.802Z,-0.10
2023-03-06T06:06:09.934Z,-0.08
2023-03-06T06:08:40.543Z,0.14
2023-03-06T06:11:11.232Z,-0.12
2023-03-06T06:13:39.950Z,-0.03
2023-03-06T06:16:09.315Z,-0.05
2023-03-06T06:18:40.592Z,-0.39
2023-03-06T06:21:11.074Z,-0.14
2023-03-06T06:23:40.811Z,0.01
2023-03-06T06:26:10.617Z,-0.03
2023-03-06T06:28:39.209Z,-0.01
2023-03-06T06:31:12.460Z,-0.24
2023-03-06T06:33:41.926Z,-0.13
2023-03-06T06:36:17.776Z,-0.04
2023-03-06T06:38:47.652Z,-0.16
2023-03-06T06:41:50.531Z,-0.09
2023-03-06T06:44:08.435Z,-0.28
2023-03-06T06:47:20.939Z,-0.09
2023-03-06T06:49:25.929Z,0.17
2023-03-06T06:51:54.339Z,0.12
2023-03-06T06:54:24.041Z,0.25
2023-03-06T06:56:52.647Z,0.20
2023-03-06T06:59:23.770Z,0.27
2023-03-06T07:01:52.526Z,0.33
2023-03-06T07:04:21.576Z,0.44
2023-03-06T07:06:49.958Z,0.38
2023-03-06T07:09:18.243Z,0.39
2023-03-06T07:11:48.456Z,0.21
2023-03-06T07:14:17.011Z,0.47
2023-03-06T07:16:45.329Z,0.55
2023-03-06T07:19:13.648Z,0.64
2023-03-06T07:21:42.371Z,0.62
2023-03-06T07:24:10.697Z,0.60
2023-03-06T07:26:39.030Z,0.47
2023-03-06T07:29:08.997Z,0.63
2023-03-06T07:31:37.383Z,0.61
2023-03-06T07:34:05.750Z,0.62
2023-03-06T07:36:34.799Z,0.57
2023-03-06T07:39:03.193Z,0.68
2023-03-06T07:41:31.557Z,0.65
2023-03-06T07:43:59.840Z,0.11
2023-03-06T07:46:29.662Z,0.47
2023-03-06T07:48:58.353Z,0.39
2023-03-06T07:51:27.294Z,0.51
2023-03-06T07:53:55.706Z,0.49
2023-03-06T07:56:25.092Z,0.58
2023-03-06T07:58:54.779Z,0.72
2023-03-06T08:01:25.030Z,0.24
2023-03-06T08:03:55.400Z,0.37
2023-03-06T08:06:25.894Z,0.49
2023-03-06T08:08:56.560Z,0.62
2023-03-06T08:11:27.135Z,0.52
2023-03-06T08:13:56.461Z,0.64
2023-03-06T08:16:26.764Z,0.42
2023-03-06T08:18:56.706Z,0.65
2023-03-06T08:21:28.959Z,0.45
2023-03-06T08:23:57.942Z,0.63
2023-03-06T08:26:28.603Z,0.64
2023-03-06T08:28:58.359Z,0.70
2023-03-06T08:31:34.735Z,0.68
2023-03-06T08:34:06.939Z,-0.12
2023-03-06T08:36:35.448Z,0.79
2023-03-06T08:39:03.964Z,0.81
2023-03-06T08:41:33.229Z,0.82
2023-03-06T08:44:01.569Z,0.95
2023-03-06T08:46:30.968Z,0.99
2023-03-06T08:48:59.728Z,1.09
2023-03-06T08:51:29.875Z,1.20
2023-03-06T08:53:59.366Z,1.17
2023-03-06T08:56:30.001Z,1.01
2023-03-06T08:59:00.663Z,0.98
2023-03-06T09:01:30.816Z,1.01
2023-03-06T09:04:01.472Z,1.14
2023-03-06T09:06:34.032Z,1.14
2023-03-06T09:09:02.751Z,1.31
2023-03-06T09:11:31.466Z,1.40
2023-03-06T09:14:00.189Z,1.44
2023-03-06T09:16:29.163Z,1.52
2023-03-06T09:18:57.981Z,1.62
2023-03-06T09:21:28.372Z,1.58
2023-03-06T09:23:58.607Z,1.49
2023-03-06T09:26:39.707Z,1.46
2023-03-06T09:29:12.710Z,1.54
2023-03-06T09:31:41.072Z,1.58
2023-03-06T09:34:09.390Z,1.50
2023-03-06T09:36:53.452Z,1.41
2023-03-06T09:39:25.998Z,1.45
2023-03-06T09:41:55.364Z,1.53
2023-03-06T09:44:27.752Z,1.55
2023-03-06T09:47:23.279Z,1.63
2023-03-06T09:50:09.998Z,1.48
2023-03-06T09:52:46.156Z,1.71
2023-03-06T09:55:19.075Z,1.43
2023-03-06T09:57:55.765Z,1.55
2023-03-06T10:00:29.401Z,1.80
2023-03-06T10:03:07.001Z,2.02
2023-03-06T10:05:40.793Z,1.98
2023-03-06T10:08:22.812Z,2.00
2023-03-06T10:10:59.280Z,1.98
2023-03-06T10:13:34.858Z,2.12
2023-03-06T10:16:13.821Z,2.24
2023-03-06T10:18:42.353Z,2.39
2023-03-06T10:21:25.432Z,2.16
2023-03-06T10:23:55.851Z,2.33
2023-03-06T10:26:28.189Z,2.26
2023-03-06T10:29:10.329Z,2.22
2023-03-06T10:31:44.768Z,2.09
2023-03-06T10:34:22.301Z,1.87
2023-03-06T10:36:50.916Z,1.90
2023-03-06T10:39:22.082Z,1.91
2023-03-06T10:41:51.910Z,1.90
2023-03-06T10:44:23.658Z,1.91
2023-03-06T10:46:54.779Z,1.90
2023-03-06T10:49:27.561Z,1.95
2023-03-06T10:52:01.944Z,2.03
2023-03-06T10:54:31.915Z,1.81
2023-03-06T10:57:20.344Z,1.85
2023-03-06T10:59:54.822Z,1.81
2023-03-06T11:02:28.666Z,1.77
2023-03-06T11:04:58.486Z,1.56
2023-03-06T11:07:28.534Z,1.51
2023-03-06T11:10:03.639Z,1.38
2023-03-06T11:12:34.626Z,1.88
2023-03-06T11:15:21.332Z,2.22
2023-03-06T11:17:53.639Z,2.20
2023-03-06T11:20:24.003Z,2.77
2023-03-06T11:22:56.420Z,2.60
2023-03-06T11:25:31.337Z,2.55
2023-03-06T11:28:05.355Z,1.87
2023-03-06T11:30:40.629Z,2.52
2023-03-06T11:33:18.399Z,2.28
2023-03-06T11:35:55.898Z,2.11
2023-03-06T11:38:34.398Z,2.34
2023-03-06T11:41:07.319Z,2.53
2023-03-06T11:43:51.266Z,2.45
2023-03-06T11:46:25.278Z,2.48
2023-03-06T11:48:55.600Z,2.67
2023-03-06T11:51:27.550Z,2.60
2023-03-06T11:53:56.628Z,2.65
2023-03-06T11:56:33.197Z,2.96
2023-03-06T11:59:25.532Z,2.93
2023-03-06T12:02:00.752Z,2.67
2023-03-06T12:04:42.744Z,2.74
2023-03-06T12:07:23.254Z,2.68
2023-03-06T12:09:57.259Z,2.76
2023-03-06T12:12:47.547Z,2.90
2023-03-06T12:15:28.574Z,3.15
2023-03-06T12:18:13.467Z,3.29
2023-03-06T12:20:52.110Z,3.53
2023-03-06T12:23:35.235Z,3.55
2023-03-06T12:26:12.630Z,3.37
2023-03-06T12:28:58.011Z,3.22
2023-03-06T12:31:44.075Z,3.11
2023-03-06T12:34:26.665Z,3.00
2023-03-06T12:37:06.221Z,2.96
2023-03-06T12:39:49.630Z,2.82
2023-03-06T12:42:35.414Z,2.74
2023-03-06T12:45:19.101Z,2.69
2023-03-06T12:47:53.059Z,2.82
2023-03-06T12:50:26.292Z,2.63
2023-03-06T12:52:56.421Z,2.53
2023-03-06T12:55:26.865Z,2.32
2023-03-06T12:57:55.415Z,2.77
2023-03-06T13:01:03.722Z,2.60
2023-03-06T13:03:46.906Z,2.78
2023-03-06T13:06:39.043Z,2.65
2023-03-06T13:09:19.992Z,2.36
2023-03-06T13:12:20.660Z,2.22
2023-03-06T13:14:57.540Z,2.60
2023-03-06T13:17:37.914Z,2.57
2023-03-06T13:20:35.425Z,2.46
2023-03-06T13:23:43.277Z,2.41
2023-03-06T13:26:33.366Z,2.33
2023-03-06T13:29:01.805Z,2.43
2023-03-06T13:31:51.034Z,2.40
2023-03-06T13:34:36.634Z,2.34
2023-03-06T13:37:50.117Z,2.45
2023-03-06T13:40:35.740Z,2.47
2023-03-06T13:43:23.322Z,2.49
2023-03-06T13:45:52.221Z,2.60
2023-03-06T13:48:43.487Z,2.74
2023-03-06T13:51:24.210Z,2.82
2023-03-06T13:54:21.671Z,2.72
2023-03-06T13:57:05.704Z,2.76
2023-03-06T13:59:56.991Z,2.72
2023-03-06T14:02:42.555Z,2.72
2023-03-06T14:05:16.374Z,2.54
2023-03-06T14:07:46.251Z,2.50
2023-03-06T14:10:26.440Z,2.75
2023-03-06T14:13:06.990Z,2.68
2023-03-06T14:15:44.687Z,2.76
2023-03-06T14:18:19.660Z,2.38
2023-03-06T14:20:52.749Z,2.11
2023-03-06T14:23:28.581Z,2.07
2023-03-06T14:26:06.502Z,2.28
2023-03-06T14:28:36.890Z,2.13
2023-03-06T14:31:07.629Z,2.22
2023-03-06T14:33:44.202Z,2.35
2023-03-06T14:36:15.455Z,2.43
2023-03-06T14:38:49.456Z,2.28
2023-03-06T14:41:27.213Z,2.54
2023-03-06T14:44:09.832Z,2.68
2023-03-06T14:46:38.176Z,2.53
2023-03-06T14:49:08.924Z,2.47
2023-03-06T14:51:42.958Z,2.52
2023-03-06T14:54:17.195Z,2.55
2023-03-06T14:56:48.915Z,2.66
2023-03-06T14:59:22.215Z,2.46
2023-03-06T15:01:53.647Z,2.50
2023-03-06T15:04:30.046Z,2.46
2023-03-06T15:07:00.251Z,2.43
2023-03-06T15:09:31.678Z,2.44
2023-03-06T15:12:03.018Z,2.42
2023-03-06T15:14:36.060Z,2.32
2023-03-06T15:17:23.354Z,2.28
2023-03-06T15:19:54.655Z,2.31
2023-03-06T15:22:29.949Z,2.27
2023-03-06T15:25:26.811Z,2.27
2023-03-06T15:27:58.372Z,2.08
2023-03-06T15:30:30.253Z,2.38
2023-03-06T15:33:24.956Z,1.94
2023-03-06T15:35:55.166Z,2.30
2023-03-06T15:38:26.479Z,2.14
2023-03-06T15:40:59.109Z,2.05
2023-03-06T15:43:30.098Z,1.86
2023-03-06T15:46:01.700Z,1.97
2023-03-06T15:48:30.095Z,1.81
2023-03-06T15:50:58.911Z,1.90
2023-03-06T15:53:27.320Z,1.81
2023-03-06T15:55:56.370Z,1.60
2023-03-06T15:58:26.977Z,1.57
2023-03-06T16:00:57.040Z,1.81
2023-03-06T16:03:25.377Z,1.73
2023-03-06T16:05:53.700Z,1.63
2023-03-06T16:08:21.969Z,1.43
2023-03-06T16:10:51.798Z,1.24
2023-03-06T16:13:27.340Z,1.19
2023-03-06T16:15:57.666Z,1.48
2023-03-06T16:18:25.998Z,1.50
2023-03-06T16:20:54.500Z,1.19
2023-03-06T16:23:23.341Z,1.23
2023-03-06T16:25:51.809Z,1.50
2023-03-06T16:28:20.118Z,1.36
2023-03-06T16:30:48.759Z,1.38
2023-03-06T16:33:18.514Z,1.37
2023-03-06T16:35:47.403Z,1.41
2023-03-06T16:38:16.885Z,1.47
2023-03-06T16:40:45.412Z,1.39
2023-03-06T16:43:16.311Z,1.57
2023-03-06T16:45:45.249Z,1.46
2023-03-06T16:48:18.484Z,1.42
2023-03-06T16:50:47.041Z,1.27
2023-03-06T16:53:15.721Z,1.45
2023-03-06T16:55:44.610Z,1.40
2023-03-06T16:58:12.938Z,1.23
2023-03-06T17:00:41.408Z,0.98
2023-03-06T17:03:09.770Z,1.53
2023-03-06T17:05:39.800Z,1.40
2023-03-06T17:08:08.116Z,1.36
2023-03-06T17:10:36.540Z,1.35
2023-03-06T17:13:05.280Z,1.37
2023-03-06T17:15:33.627Z,1.45
2023-03-06T17:18:02.806Z,1.38
2023-03-06T17:20:31.126Z,1.31
2023-03-06T17:23:00.844Z,1.42
2023-03-06T17:25:29.155Z,1.46
2023-03-06T17:27:57.394Z,0.95
2023-03-06T17:30:25.729Z,1.24
2023-03-06T17:32:53.983Z,1.26
2023-03-06T17:35:22.312Z,1.12
2023-03-06T17:37:50.838Z,1.11
2023-03-06T17:40:20.751Z,1.22
2023-03-06T17:42:50.765Z,1.27
2023-03-06T17:45:19.286Z,1.23
2023-03-06T17:47:49.126Z,1.25
2023-03-06T17:50:17.778Z,1.11
2023-03-06T17:52:46.096Z,0.98
2023-03-06T17:55:14.664Z,1.08
2023-03-06T17:57:45.496Z,1.18
2023-03-06T18:00:14.699Z,1.21
2023-03-06T18:02:45.481Z,1.27
2023-03-06T18:05:14.148Z,1.27
2023-03-06T18:07:42.606Z,1.26
2023-03-06T18:10:11.841Z,0.77
2023-03-06T18:12:40.238Z,1.11
2023-03-06T18:15:11.177Z,1.16
2023-03-06T18:17:40.005Z,1.23
2023-03-06T18:20:09.140Z,0.98
2023-03-06T18:22:37.885Z,1.21
2023-03-06T18:25:06.827Z,1.19
2023-03-06T18:27:35.439Z,1.25
2023-03-06T18:30:04.438Z,1.21
2023-03-06T18:32:34.233Z,1.01
2023-03-06T18:35:02.853Z,1.19
2023-03-06T18:37:31.161Z,1.11
2023-03-06T18:39:59.545Z,1.23
2023-03-06T18:42:27.944Z,1.22
2023-03-06T18:44:56.300Z,1.25
2023-03-06T18:47:24.680Z,1.26
2023-03-06T18:49:54.617Z,1.23
2023-03-06T18:52:22.874Z,1.26
2023-03-06T18:54:51.253Z,1.26
2023-03-06T18:57:19.827Z,1.22
2023-03-06T18:59:48.453Z,1.24
2023-03-06T19:02:16.834Z,1.28
2023-03-06T19:04:45.147Z,1.20
2023-03-06T19:07:16.029Z,1.17
2023-03-06T19:09:44.618Z,1.07
2023-03-06T19:12:13.010Z,-0.23
2023-03-06T19:14:41.284Z,0.87
2023-03-06T19:17:09.873Z,1.14
2023-03-06T19:19:38.143Z,0.99
2023-03-06T19:22:06.478Z,1.12
2023-03-06T19:24:36.349Z,1.12
2023-03-06T19:27:05.290Z,1.23
2023-03-06T19:29:34.643Z,0.90
2023-03-06T19:32:03.212Z,1.03
2023-03-06T19:34:31.824Z,1.06
2023-03-06T19:37:00.528Z,1.09
2023-03-06T19:39:28.894Z,1.11
2023-03-06T19:41:58.568Z,1.06
2023-03-06T19:44:27.276Z,1.03
2023-03-06T19:46:55.543Z,1.04
2023-03-06T19:49:24.857Z,1.12
2023-03-06T19:51:53.120Z,1.11
2023-03-06T19:54:23.581Z,1.09
2023-03-06T19:56:53.385Z,1.12
2023-03-06T19:59:24.640Z,1.08
2023-03-06T20:01:54.804Z,1.04
2023-03-06T20:04:24.529Z,1.07
2023-03-06T20:06:54.342Z,1.07
2023-03-06T20:09:23.936Z,1.08
2023-03-06T20:11:53.717Z,1.09
2023-03-06T20:14:25.530Z,1.04
2023-03-06T20:16:55.154Z,1.12
2023-03-06T20:19:25.336Z,1.07
2023-03-06T20:21:56.532Z,1.09
2023-03-06T20:24:26.548Z,1.05
2023-03-06T20:26:58.507Z,1.20
2023-03-06T20:29:31.083Z,1.19
2023-03-06T20:32:01.746Z,1.24
2023-03-06T20:34:31.614Z,1.09
2023-03-06T20:37:01.314Z,1.08
2023-03-06T20:39:31.190Z,1.11
2023-03-06T20:42:01.023Z,1.06
2023-03-06T20:44:33.440Z,1.02
2023-03-06T20:47:03.122Z,1.01
2023-03-06T20:49:33.320Z,0.97
2023-03-06T20:52:02.966Z,0.86
2023-03-06T20:54:32.762Z,0.99
2023-03-06T20:57:02.753Z,1.12
2023-03-06T20:59:34.315Z,1.11
2023-03-06T21:02:04.385Z,1.12
2023-03-06T21:04:34.652Z,1.00
2023-03-06T21:07:04.381Z,1.12
2023-03-06T21:09:34.755Z,1.10
2023-03-06T21:12:05.954Z,1.17
2023-03-06T21:14:37.241Z,1.07
2023-03-06T21:17:06.203Z,0.88
2023-03-06T21:19:35.790Z,1.13
2023-03-06T21:22:06.028Z,1.15
2023-03-06T21:24:36.363Z,1.09
2023-03-06T21:27:07.039Z,1.10
2023-03-06T21:29:38.630Z,1.00
2023-03-06T21:32:08.820Z,1.07
2023-03-06T21:34:37.597Z,1.00
2023-03-06T21:37:05.886Z,0.95
2023-03-06T21:39:34.489Z,0.80
2023-03-06T21:42:02.782Z,0.71
2023-03-06T21:44:31.184Z,0.71
2023-03-06T21:47:01.148Z,0.77
2023-03-06T21:49:29.673Z,0.18
2023-03-06T21:51:58.709Z,0.48
2023-03-06T21:54:29.720Z,0.86
2023-03-06T21:56:58.500Z,0.71
2023-03-06T21:59:27.021Z,0.56
2023-03-06T22:01:55.370Z,0.60
2023-03-06T22:04:25.168Z,-0.56
2023-03-06T22:06:53.695Z,0.63
2023-03-06T22:09:22.097Z,0.71
2023-03-06T22:11:50.493Z,0.71
2023-03-06T22:14:18.833Z,0.74
2023-03-06T22:16:47.124Z,0.81
2023-03-06T22:19:15.791Z,0.73
2023-03-06T22:21:45.629Z,0.72
2023-03-06T22:24:13.939Z,0.77
2023-03-06T22:26:42.286Z,0.64
2023-03-06T22:29:10.572Z,0.80
2023-03-06T22:31:40.377Z,0.84
2023-03-06T22:34:08.941Z,1.06
2023-03-06T22:36:37.274Z,0.84
2023-03-06T22:39:07.531Z,0.89
2023-03-06T22:41:35.908Z,0.84
2023-03-06T22:44:04.185Z,0.86
2023-03-06T22:46:33.360Z,0.82
2023-03-06T22:49:02.041Z,0.86
2023-03-06T22:51:30.884Z,0.83
2023-03-06T22:53:59.516Z,0.90
2023-03-06T22:56:29.336Z,1.02
2023-03-06T22:58:58.337Z,0.72
2023-03-06T23:01:28.986Z,1.12
2023-03-06T23:03:59.301Z,0.93
2023-03-06T23:06:29.736Z,1.06
2023-03-06T23:09:00.519Z,1.05
2023-03-06T23:11:31.171Z,0.89
2023-03-06T23:14:00.244Z,0.97
2023-03-06T23:16:29.520Z,0.80
2023-03-06T23:18:57.844Z,0.79
2023-03-06T23:21:26.777Z,0.79
2023-03-06T23:23:55.876Z,0.42
2023-03-06T23:26:27.172Z,0.83
2023-03-06T23:28:57.775Z,1.00
2023-03-06T23:31:28.928Z,0.87
2023-03-06T23:33:59.031Z,0.75
2023-03-06T23:36:27.450Z,0.65
2023-03-06T23:38:55.783Z,0.74
2023-03-06T23:41:24.977Z,0.68
2023-03-06T23:43:55.170Z,0.64
2023-03-06T23:46:25.232Z,0.74
2023-03-06T23:48:53.840Z,0.62
2023-03-06T23:51:24.056Z,0.51
2023-03-06T23:53:56.539Z,0.13
2023-03-06T23:56:25.824Z,0.44
2023-03-06T23:58:54.955Z,0.17
